Time;durP1;ratioP1;P1;durP2;ratioP2;P2;SDS_P1;SDS_P2;PMS_P1;PMS_P2;Temp;Humidity;BMP_temperature;BMP_pressure;BME280_temperature;BME280_humidity;BME280_pressure;Samples;Min_cycle;Max_cycle;Signal;HPM_P1;HPM_P2
2022/01/30 00:01:44;;;;;;;;;;;6.90;52.40;;;;;;4995734;28;20000;-71
2022/01/30 00:04:10;;;;;;;;;;;6.90;52.30;;;;;;4995703;28;19910;-70
2022/01/30 00:06:36;;;;;;;;;;;6.90;51.50;;;;;;4995954;28;19913;-70
2022/01/30 00:09:02;;;;;;;;;;;6.80;51.80;;;;;;4995678;28;19929;-68
2022/01/30 00:11:33;;;;;;;;;;;6.80;51.70;;;;;;4995592;28;19964;-71
2022/01/30 00:14:00;;;;;;;;;;;6.70;51.20;;;;;;4995601;28;19967;-69
2022/01/30 00:16:30;;;;;;;;;;;6.70;51.60;;;;;;4995435;28;20281;-72
2022/01/30 00:23:58;;;;;;;;;;;6.60;50.50;;;;;;4995285;28;19910;-66
2022/01/30 00:26:29;;;;;;;;;;;6.50;51.90;;;;;;4995448;28;20404;-70
2022/01/30 00:28:54;;;;;;;;;;;6.40;51.70;;;;;;4995127;28;19918;-70
2022/01/30 00:31:21;;;;;;;;;;;6.20;52.90;;;;;;4995217;28;20412;-71
2022/01/30 00:33:47;;;;;;;;;;;6.00;53.40;;;;;;4995151;28;19910;-71
2022/01/30 00:36:12;;;;;;;;;;;5.90;53.70;;;;;;4995176;28;19992;-70
2022/01/30 00:38:38;;;;;;;;;;;6.00;52.70;;;;;;4995077;28;20273;-69
2022/01/30 00:41:04;;;;;;;;;;;6.00;52.50;;;;;;4995631;28;20277;-72
2022/01/30 00:43:29;;;;;;;;;;;6.00;51.80;;;;;;4995375;28;19932;-67
2022/01/30 00:45:55;;;;;;;;;;;6.10;51.00;;;;;;4995139;28;20045;-67
2022/01/30 00:48:20;;;;;;;;;;;6.20;50.60;;;;;;4994864;28;19925;-68
2022/01/30 00:50:46;;;;;;;;;;;6.20;51.70;;;;;;4994793;28;20004;-68
2022/01/30 00:53:12;;;;;;;;;;;6.10;52.10;;;;;;4994817;28;19969;-69
2022/01/30 00:55:37;;;;;;;;;;;6.10;51.90;;;;;;4995071;28;19956;-68
2022/01/30 00:58:03;;;;;;;;;;;6.00;52.60;;;;;;4994561;28;19921;-68
2022/01/30 01:00:29;;;;;;;;;;;6.00;52.50;;;;;;4994728;28;20335;-69
2022/01/30 01:02:55;;;;;;;;;;;5.90;52.00;;;;;;4994927;28;20009;-68
2022/01/30 01:05:21;;;;;;;;;;;6.00;51.50;;;;;;4994598;28;19956;-68
2022/01/30 01:07:48;;;;;;;;;;;6.00;51.60;;;;;;4994713;28;19924;-68
2022/01/30 01:10:33;;;;;;;;;;;6.10;52.00;;;;;;4994444;28;19917;-67
2022/01/30 01:23:33;;;;;;;;;;;6.30;50.10;;;;;;4994859;28;19910;-68
2022/01/30 01:25:59;;;;;;;;;;;6.40;50.40;;;;;;4994258;28;19910;-68
2022/01/30 01:28:25;;;;;;;;;;;6.10;51.50;;;;;;4994343;28;19918;-69
2022/01/30 01:30:51;;;;;;;;;;;6.10;52.00;;;;;;4994233;28;19923;-70
2022/01/30 01:33:17;;;;;;;;;;;5.90;53.10;;;;;;4994366;28;19994;-70
2022/01/30 01:35:43;;;;;;;;;;;5.90;52.40;;;;;;4994445;28;20254;-69
2022/01/30 01:38:12;;;;;;;;;;;5.90;52.90;;;;;;4994183;28;20005;-71
2022/01/30 01:40:40;;;;;;;;;;;5.80;53.60;;;;;;4994421;28;19956;-70
2022/01/30 01:43:06;;;;;;;;;;;5.80;54.20;;;;;;4994177;28;20005;-71
2022/01/30 01:45:36;;;;;;;;;;;5.80;53.90;;;;;;5003747;28;19948;-71
2022/01/30 01:48:08;;;;;;;;;;;5.80;54.30;;;;;;5004136;28;19922;-71
2022/01/30 01:50:40;;;;;;;;;;;5.80;54.00;;;;;;4994436;28;19909;-71
2022/01/30 01:53:07;;;;;;;;;;;5.80;54.30;;;;;;5000709;28;19910;-69
2022/01/30 01:55:33;;;;;;;;;;;5.80;54.20;;;;;;4998847;28;19916;-69
2022/01/30 01:57:59;;;;;;;;;;;5.80;54.90;;;;;;5000282;28;20362;-69
2022/01/30 02:00:24;;;;;;;;;;;5.70;55.20;;;;;;5000113;28;19910;-70
2022/01/30 02:02:50;;;;;;;;;;;5.80;55.30;;;;;;5000529;28;20354;-71
2022/01/30 02:05:16;;;;;;;;;;;5.80;54.90;;;;;;5000224;28;20362;-69
2022/01/30 02:08:22;;;;;;;;;;;5.90;55.10;;;;;;5000633;28;19976;-70
2022/01/30 02:27:20;;;;;;;;;;;6.10;57.10;;;;;;5000221;28;19917;-70
2022/01/30 02:29:46;;;;;;;;;;;5.90;57.40;;;;;;4999720;28;19940;-69
2022/01/30 02:32:12;;;;;;;;;;;6.00;58.10;;;;;;5000343;28;19914;-70
2022/01/30 02:34:37;;;;;;;;;;;5.90;58.70;;;;;;5000441;28;19916;-70
2022/01/30 02:37:03;;;;;;;;;;;5.80;59.00;;;;;;5000086;28;19913;-71
2022/01/30 02:39:29;;;;;;;;;;;5.90;59.50;;;;;;4999903;28;20357;-71
2022/01/30 02:41:55;;;;;;;;;;;5.90;59.30;;;;;;5000065;28;19910;-70
2022/01/30 02:47:04;;;;;;;;;;;6.00;59.20;;;;;;4999850;28;19913;-70
2022/01/30 02:49:43;;;;;;;;;;;6.30;57.90;;;;;;5000124;28;19921;-69
2022/01/30 02:52:10;;;;;;;;;;;6.40;57.90;;;;;;5000051;28;19917;-68
2022/01/30 02:54:36;;;;;;;;;;;6.40;57.70;;;;;;4999985;28;19910;-68
2022/01/30 02:57:02;;;;;;;;;;;6.40;57.80;;;;;;4999870;28;20004;-68
2022/01/30 02:59:27;;;;;;;;;;;6.40;58.00;;;;;;4999878;28;19917;-67
2022/01/30 03:01:53;;;;;;;;;;;6.40;59.00;;;;;;5000135;28;19917;-68
2022/01/30 03:04:19;;;;;;;;;;;6.40;59.30;;;;;;4999720;28;19952;-69
2022/01/30 03:06:45;;;;;;;;;;;6.40;59.20;;;;;;4995893;28;19909;-69
2022/01/30 03:09:11;;;;;;;;;;;6.50;57.80;;;;;;4996581;28;19917;-68
2022/01/30 03:11:37;;;;;;;;;;;6.60;57.20;;;;;;4996712;28;19936;-69
2022/01/30 03:14:03;;;;;;;;;;;6.80;56.50;;;;;;4996637;28;19917;-68
2022/01/30 03:16:28;;;;;;;;;;;6.90;56.10;;;;;;4996456;28;19916;-69
2022/01/30 03:18:54;;;;;;;;;;;6.80;57.00;;;;;;4996672;28;19910;-70
2022/01/30 03:21:20;;;;;;;;;;;6.80;56.60;;;;;;4996670;28;20266;-69
2022/01/30 03:23:46;;;;;;;;;;;6.80;56.70;;;;;;4996353;28;19933;-70
2022/01/30 03:26:13;;;;;;;;;;;6.80;56.60;;;;;;4996624;28;20012;-68
2022/01/30 03:28:41;;;;;;;;;;;6.90;56.70;;;;;;4996348;28;19964;-70
2022/01/30 03:31:08;;;;;;;;;;;6.60;57.40;;;;;;4996697;28;19973;-67
2022/01/30 03:33:34;;;;;;;;;;;6.50;58.70;;;;;;4996432;28;19998;-69
2022/01/30 03:36:00;;;;;;;;;;;6.20;59.00;;;;;;4996109;28;20033;-68
2022/01/30 03:38:26;;;;;;;;;;;6.20;59.90;;;;;;4996239;28;20421;-69
2022/01/30 03:40:52;;;;;;;;;;;6.10;60.10;;;;;;4996208;28;20369;-68
2022/01/30 03:43:17;;;;;;;;;;;6.00;60.10;;;;;;4996245;28;19925;-68
2022/01/30 03:45:43;;;;;;;;;;;6.10;60.30;;;;;;4996125;28;20413;-71
2022/01/30 03:48:09;;;;;;;;;;;6.00;60.20;;;;;;4996080;28;19917;-70
2022/01/30 03:50:35;;;;;;;;;;;6.00;60.80;;;;;;4994874;28;19910;-69
2022/01/30 03:53:00;;;;;;;;;;;6.00;60.80;;;;;;4995842;28;19910;-69
2022/01/30 03:55:26;;;;;;;;;;;5.90;61.20;;;;;;4996173;28;20314;-69
2022/01/30 03:57:51;;;;;;;;;;;5.80;61.70;;;;;;4995853;28;20373;-68
2022/01/30 04:00:17;;;;;;;;;;;5.70;62.30;;;;;;4995633;28;19964;-67
2022/01/30 04:02:42;;;;;;;;;;;5.80;62.80;;;;;;4996411;28;19910;-70
2022/01/30 04:05:08;;;;;;;;;;;5.70;62.70;;;;;;4995904;28;20385;-72
2022/01/30 04:07:34;;;;;;;;;;;5.70;63.20;;;;;;4995587;28;20325;-71
2022/01/30 04:10:00;;;;;;;;;;;5.70;63.60;;;;;;4995716;28;20012;-72
2022/01/30 04:12:26;;;;;;;;;;;5.60;64.00;;;;;;4995600;28;19914;-71
2022/01/30 04:14:51;;;;;;;;;;;5.60;64.30;;;;;;4995857;28;19941;-69
2022/01/30 04:17:20;;;;;;;;;;;5.60;64.30;;;;;;4995300;28;19910;-71
2022/01/30 04:19:46;;;;;;;;;;;5.50;64.60;;;;;;4995458;28;19918;-69
2022/01/30 04:22:12;;;;;;;;;;;5.60;64.60;;;;;;4995465;28;20012;-71
2022/01/30 04:24:37;;;;;;;;;;;5.60;64.20;;;;;;4995693;28;19960;-70
2022/01/30 04:27:03;;;;;;;;;;;5.50;64.50;;;;;;4995356;28;19956;-71
2022/01/30 04:29:29;;;;;;;;;;;5.60;64.60;;;;;;4995676;28;19918;-70
2022/01/30 04:31:55;;;;;;;;;;;5.60;64.60;;;;;;5004063;28;19910;-71
2022/01/30 04:34:21;;;;;;;;;;;5.50;64.80;;;;;;5008478;28;20293;-69
2022/01/30 04:37:04;;;;;;;;;;;5.60;64.90;;;;;;4995099;28;20281;-70
2022/01/30 04:52:01;;;;;;;;;;;5.60;65.10;;;;;;4995461;28;20281;-72
2022/01/30 05:04:26;;;;;;;;;;;5.40;64.70;;;;;;4994855;28;19914;-70
2022/01/30 05:09:27;;;;;;;;;;;5.40;64.70;;;;;;4994396;28;19917;-69
2022/01/30 05:11:53;;;;;;;;;;;5.40;64.60;;;;;;4994390;28;19917;-68
2022/01/30 05:14:22;;;;;;;;;;;5.40;64.60;;;;;;5003736;23;19930;-61
2022/01/30 05:16:48;;;;;;;;;;;5.50;63.80;;;;;;4974873;28;20355;-62
2022/01/30 05:19:14;;;;;;;;;;;5.50;63.70;;;;;;4975033;28;19917;-61
2022/01/30 05:21:40;;;;;;;;;;;5.60;63.70;;;;;;4974854;28;19922;-62
2022/01/30 05:24:06;;;;;;;;;;;5.60;63.20;;;;;;4974918;28;19910;-61
2022/01/30 05:26:32;;;;;;;;;;;5.70;63.30;;;;;;4974995;28;19910;-61
2022/01/30 05:28:58;;;;;;;;;;;5.60;63.70;;;;;;4973676;28;20625;-61
2022/01/30 05:31:23;;;;;;;;;;;5.60;63.40;;;;;;4974855;28;19969;-61
2022/01/30 05:33:49;;;;;;;;;;;5.60;63.50;;;;;;4974656;28;20444;-61
2022/01/30 05:36:15;;;;;;;;;;;5.60;63.50;;;;;;4974791;28;20290;-64
2022/01/30 05:38:40;;;;;;;;;;;5.60;63.30;;;;;;4974630;28;20393;-61
2022/01/30 05:41:06;;;;;;;;;;;5.70;62.10;;;;;;4975076;28;20281;-61
2022/01/30 05:43:33;;;;;;;;;;;5.70;62.10;;;;;;4974560;28;19914;-61
2022/01/30 05:46:13;;;;;;;;;;;5.80;62.00;;;;;;4974480;28;19910;-61
2022/01/30 05:48:39;;;;;;;;;;;5.80;62.00;;;;;;4974435;28;19918;-61
2022/01/30 05:51:05;;;;;;;;;;;5.60;62.80;;;;;;4974458;28;19968;-61
2022/01/30 05:53:31;;;;;;;;;;;5.40;64.00;;;;;;4974447;28;19917;-61
2022/01/30 05:55:56;;;;;;;;;;;5.30;64.40;;;;;;4974532;28;20330;-61
2022/01/30 05:58:22;;;;;;;;;;;5.30;64.70;;;;;;4974216;28;20001;-62
2022/01/30 06:00:47;;;;;;;;;;;5.20;64.80;;;;;;4974473;28;19937;-61
2022/01/30 06:03:13;;;;;;;;;;;5.20;65.50;;;;;;4974428;28;19918;-61
2022/01/30 06:05:40;;;;;;;;;;;5.20;65.40;;;;;;4974472;28;19910;-61
2022/01/30 06:08:12;;;;;;;;;;;5.10;65.40;;;;;;4974444;28;20348;-61
2022/01/30 06:10:38;;;;;;;;;;;5.20;64.40;;;;;;4974115;28;19925;-61
2022/01/30 06:13:03;;;;;;;;;;;5.30;63.90;;;;;;4974427;28;19910;-61
2022/01/30 06:15:29;;;;;;;;;;;5.40;63.60;;;;;;4974130;28;19926;-61
2022/01/30 06:17:55;;;;;;;;;;;5.70;61.80;;;;;;4974463;28;19910;-61
2022/01/30 06:20:21;;;;;;;;;;;5.60;62.20;;;;;;4974402;28;20381;-61
2022/01/30 06:22:46;;;;;;;;;;;5.70;62.10;;;;;;4974705;28;19914;-61
2022/01/30 06:25:12;;;;;;;;;;;5.70;62.20;;;;;;4974201;28;19910;-61
2022/01/30 06:27:38;;;;;;;;;;;5.60;62.80;;;;;;4974328;28;19965;-61
2022/01/30 06:30:05;;;;;;;;;;;5.80;62.20;;;;;;4974842;28;20008;-61
2022/01/30 06:32:30;;;;;;;;;;;5.70;62.30;;;;;;4974438;28;19910;-64
2022/01/30 06:34:56;;;;;;;;;;;5.60;62.60;;;;;;4974375;28;19921;-61
2022/01/30 06:37:22;;;;;;;;;;;5.60;62.60;;;;;;4974881;28;19933;-61
2022/01/30 06:39:47;;;;;;;;;;;5.70;62.00;;;;;;4974557;28;19933;-61
2022/01/30 06:42:13;;;;;;;;;;;5.90;60.40;;;;;;4977573;28;19914;-62
2022/01/30 06:44:38;;;;;;;;;;;5.90;60.20;;;;;;4977880;28;19910;-61
2022/01/30 06:47:05;;;;;;;;;;;5.80;60.70;;;;;;4977641;28;20438;-61
2022/01/30 06:49:30;;;;;;;;;;;5.90;60.60;;;;;;4977685;28;20306;-61
2022/01/30 06:51:56;;;;;;;;;;;6.00;60.40;;;;;;4977432;28;19910;-61
2022/01/30 06:54:21;;;;;;;;;;;5.90;60.40;;;;;;4977531;28;19911;-61
2022/01/30 06:56:47;;;;;;;;;;;6.00;60.40;;;;;;4977577;28;19910;-61
2022/01/30 06:59:13;;;;;;;;;;;6.00;60.10;;;;;;4977177;28;20001;-61
2022/01/30 07:01:38;;;;;;;;;;;6.10;59.90;;;;;;4977364;28;19945;-67
2022/01/30 07:04:04;;;;;;;;;;;6.20;59.30;;;;;;4977826;28;19910;-61
2022/01/30 07:06:30;;;;;;;;;;;6.10;59.60;;;;;;4977096;28;19953;-63
2022/01/30 07:08:55;;;;;;;;;;;6.50;68.70;;;;;;4976798;28;20392;-61
2022/01/30 07:11:21;;;;;;;;;;;6.80;63.40;;;;;;4977178;28;20009;-63
2022/01/30 07:13:47;;;;;;;;;;;7.40;61.50;;;;;;4976853;28;19910;-61
2022/01/30 07:16:12;;;;;;;;;;;7.00;56.90;;;;;;4977183;28;19921;-60
2022/01/30 07:18:38;;;;;;;;;;;6.90;58.10;;;;;;4959274;28;20327;-61
2022/01/30 07:21:04;;;;;;;;;;;6.30;58.40;;;;;;4977004;28;20281;-58
2022/01/30 07:23:30;;;;;;;;;;;6.10;60.20;;;;;;4976820;28;19914;-69
2022/01/30 07:25:55;;;;;;;;;;;6.20;59.80;;;;;;4976661;28;20353;-63
2022/01/30 07:28:21;;;;;;;;;;;5.70;61.30;;;;;;4976707;28;19918;-65
2022/01/30 07:30:47;;;;;;;;;;;5.80;62.20;;;;;;4976614;28;19965;-62
2022/01/30 07:33:12;;;;;;;;;;;6.00;61.30;;;;;;4976841;28;19917;-63
2022/01/30 07:35:40;;;;;;;;;;;6.20;60.30;;;;;;4977126;28;20004;-63
2022/01/30 07:38:06;;;;;;;;;;;6.40;59.90;;;;;;4976588;28;20281;-64
2022/01/30 07:40:33;;;;;;;;;;;6.60;59.40;;;;;;4976947;28;19911;-62
2022/01/30 07:42:59;;;;;;;;;;;6.80;58.90;;;;;;4976361;28;19910;-67
2022/01/30 07:45:25;;;;;;;;;;;6.70;59.80;;;;;;4979207;28;19921;-60
2022/01/30 07:47:51;;;;;;;;;;;6.60;60.10;;;;;;4994395;28;19918;-62
2022/01/30 07:50:16;;;;;;;;;;;6.70;59.70;;;;;;4994120;28;20397;-60
2022/01/30 07:52:42;;;;;;;;;;;6.70;60.60;;;;;;4993696;28;19992;-76
2022/01/30 07:55:08;;;;;;;;;;;6.80;60.50;;;;;;4994342;28;19909;-75
2022/01/30 07:57:33;;;;;;;;;;;7.00;61.80;;;;;;4994451;28;20209;-66
2022/01/30 07:59:59;;;;;;;;;;;7.00;60.70;;;;;;4994481;28;19921;-66
2022/01/30 08:02:24;;;;;;;;;;;7.10;60.80;;;;;;4994297;28;19910;-60
2022/01/30 08:04:52;;;;;;;;;;;7.20;61.10;;;;;;4994367;28;20281;-72
2022/01/30 08:07:18;;;;;;;;;;;7.30;61.30;;;;;;4995411;28;19924;-67
2022/01/30 08:09:43;;;;;;;;;;;7.40;60.70;;;;;;4995416;28;19914;-74
2022/01/30 08:12:09;;;;;;;;;;;7.60;61.30;;;;;;4995537;28;19914;-69
2022/01/30 08:14:35;;;;;;;;;;;7.80;60.60;;;;;;4995194;28;20029;-60
2022/01/30 08:17:01;;;;;;;;;;;7.90;59.60;;;;;;4995352;28;19957;-67
2022/01/30 08:19:26;;;;;;;;;;;8.00;58.30;;;;;;4995182;28;20289;-70
2022/01/30 08:21:52;;;;;;;;;;;8.10;57.40;;;;;;4994812;28;19976;-74
2022/01/30 08:24:19;;;;;;;;;;;8.30;58.10;;;;;;4995491;28;19910;-66
2022/01/30 08:26:45;;;;;;;;;;;8.40;58.50;;;;;;4994787;28;19997;-60
2022/01/30 08:29:11;;;;;;;;;;;8.30;57.50;;;;;;4994910;28;20369;-66
2022/01/30 08:31:36;;;;;;;;;;;8.30;58.20;;;;;;4994901;28;19917;-61
2022/01/30 08:34:02;;;;;;;;;;;8.80;61.70;;;;;;4994710;28;19910;-66
2022/01/30 08:36:27;;;;;;;;;;;8.90;58.30;;;;;;4993392;28;20262;-63
2022/01/30 08:38:53;;;;;;;;;;;9.10;58.30;;;;;;4993192;28;19917;-70
2022/01/30 08:41:18;;;;;;;;;;;9.10;56.40;;;;;;4993637;28;19964;-64
2022/01/30 08:43:44;;;;;;;;;;;9.20;57.10;;;;;;4993550;28;19914;-72
2022/01/30 08:46:10;;;;;;;;;;;9.40;57.30;;;;;;4993835;28;19914;-71
2022/01/30 08:48:35;;;;;;;;;;;9.50;56.60;;;;;;4994469;28;19918;-61
2022/01/30 08:51:01;;;;;;;;;;;9.70;55.70;;;;;;4994578;28;20333;-64
2022/01/30 08:53:26;;;;;;;;;;;9.80;54.90;;;;;;4994473;28;19914;-77
2022/01/30 08:55:52;;;;;;;;;;;9.80;53.80;;;;;;4994689;28;20040;-68
2022/01/30 08:58:17;;;;;;;;;;;9.90;54.40;;;;;;4994431;28;19910;-74
2022/01/30 09:00:43;;;;;;;;;;;10.10;52.60;;;;;;4994437;28;19916;-78
2022/01/30 09:03:09;;;;;;;;;;;10.10;53.50;;;;;;4993942;28;20381;-64
2022/01/30 09:05:35;;;;;;;;;;;10.30;52.60;;;;;;4993751;28;19917;-69
2022/01/30 09:08:04;;;;;;;;;;;10.30;51.30;;;;;;4994351;28;19918;-60
2022/01/30 09:10:31;;;;;;;;;;;10.30;50.90;;;;;;4994014;28;19921;-61
2022/01/30 09:12:56;;;;;;;;;;;10.50;50.80;;;;;;4994322;28;19918;-70
2022/01/30 09:15:22;;;;;;;;;;;10.50;51.00;;;;;;4993348;28;19921;-63
2022/01/30 09:17:47;;;;;;;;;;;10.50;51.20;;;;;;4992956;28;19909;-61
2022/01/30 09:20:13;;;;;;;;;;;10.40;50.90;;;;;;4992945;28;19960;-61
2022/01/30 09:22:39;;;;;;;;;;;10.40;51.70;;;;;;4993014;28;19909;-72
2022/01/30 09:25:05;;;;;;;;;;;10.50;51.40;;;;;;4993043;28;19909;-72
2022/01/30 09:27:31;;;;;;;;;;;10.50;51.50;;;;;;4994075;28;19910;-63
2022/01/30 09:29:57;;;;;;;;;;;10.40;52.40;;;;;;4993935;28;19909;-73
2022/01/30 09:32:23;;;;;;;;;;;10.40;52.60;;;;;;4994193;28;19917;-65
2022/01/30 09:34:48;;;;;;;;;;;10.40;52.80;;;;;;4993859;28;19933;-71
2022/01/30 09:37:14;;;;;;;;;;;10.50;51.80;;;;;;4994173;28;19910;-60
2022/01/30 09:39:40;;;;;;;;;;;10.50;52.00;;;;;;4976402;28;19922;-59
2022/01/30 09:42:06;;;;;;;;;;;10.60;52.00;;;;;;4993782;28;20012;-70
2022/01/30 09:44:36;;;;;;;;;;;10.50;52.70;;;;;;4993264;28;19914;-60
2022/01/30 09:47:02;;;;;;;;;;;10.40;52.60;;;;;;4993812;28;19956;-59
2022/01/30 09:49:28;;;;;;;;;;;10.50;52.70;;;;;;4993916;28;19953;-61
2022/01/30 09:51:54;;;;;;;;;;;10.50;53.10;;;;;;4993738;28;19910;-62
2022/01/30 09:54:20;;;;;;;;;;;10.70;52.60;;;;;;4993614;28;19914;-59
2022/01/30 09:56:45;;;;;;;;;;;10.80;52.10;;;;;;4993782;28;19945;-60
2022/01/30 09:59:11;;;;;;;;;;;10.80;53.00;;;;;;4993638;28;20419;-61
2022/01/30 10:01:37;;;;;;;;;;;10.90;53.10;;;;;;4993592;28;19924;-61
2022/01/30 10:04:04;;;;;;;;;;;10.90;53.50;;;;;;4993836;28;19910;-73
2022/01/30 10:06:36;;;;;;;;;;;10.80;53.50;;;;;;4993660;28;20358;-63
2022/01/30 10:09:24;;;;;;;;;;;10.90;53.20;;;;;;4993596;28;20301;-75
2022/01/30 10:12:00;;;;;;;;;;;11.00;53.60;;;;;;4993156;28;19949;-69
2022/01/30 10:14:26;;;;;;;;;;;11.00;53.20;;;;;;4993357;28;19921;-60
2022/01/30 10:16:51;;;;;;;;;;;10.90;53.50;;;;;;4997382;28;20471;-70
2022/01/30 10:19:21;;;;;;;;;;;11.00;53.40;;;;;;4997342;28;20277;-58
2022/01/30 10:21:47;;;;;;;;;;;11.10;53.40;;;;;;4997406;28;20024;-61
2022/01/30 10:24:35;;;;;;;;;;;11.30;52.80;;;;;;4997667;28;19916;-64
2022/01/30 10:27:16;;;;;;;;;;;11.30;52.90;;;;;;4997158;28;19914;-63
2022/01/30 10:29:42;;;;;;;;;;;11.40;51.90;;;;;;4997383;28;19918;-73
2022/01/30 10:32:08;;;;;;;;;;;11.40;52.00;;;;;;4997301;28;19968;-63
2022/01/30 10:34:36;;;;;;;;;;;11.50;52.60;;;;;;4997377;28;19910;-73
2022/01/30 10:37:15;;;;;;;;;;;11.70;51.80;;;;;;4997084;28;20008;-63
2022/01/30 10:40:13;;;;;;;;;;;11.60;51.70;;;;;;4979873;28;20004;-75
2022/01/30 10:42:43;;;;;;;;;;;11.60;52.80;;;;;;4981694;28;20369;-75
2022/01/30 10:45:25;;;;;;;;;;;11.80;51.70;;;;;;4996955;28;20000;-73
2022/01/30 10:47:50;;;;;;;;;;;12.10;50.70;;;;;;4997014;28;19945;-68
2022/01/30 10:50:18;;;;;;;;;;;12.30;49.80;;;;;;4996922;28;19910;-68
2022/01/30 10:52:50;;;;;;;;;;;12.30;50.00;;;;;;4997192;28;19917;-61
2022/01/30 10:55:16;;;;;;;;;;;12.20;49.20;;;;;;4996900;28;19913;-70
2022/01/30 10:57:44;;;;;;;;;;;12.20;48.90;;;;;;4997092;28;19910;-75
2022/01/30 11:00:09;;;;;;;;;;;12.30;48.40;;;;;;4996832;28;20410;-65
2022/01/30 11:02:36;;;;;;;;;;;12.30;48.10;;;;;;4996953;28;19944;-69
2022/01/30 11:05:06;;;;;;;;;;;12.40;47.80;;;;;;4996648;28;19917;-71
2022/01/30 11:07:34;;;;;;;;;;;12.50;47.00;;;;;;4996565;28;19916;-74
2022/01/30 11:10:15;;;;;;;;;;;12.50;46.90;;;;;;4996593;28;19921;-60
2022/01/30 11:12:56;;;;;;;;;;;12.50;48.30;;;;;;4996746;28;19910;-66
2022/01/30 11:15:34;;;;;;;;;;;12.50;48.70;;;;;;4998924;28;20394;-60
2022/01/30 11:18:00;;;;;;;;;;;12.50;49.30;;;;;;4998760;28;19949;-61
2022/01/30 11:20:27;;;;;;;;;;;12.70;48.80;;;;;;4997091;28;19916;-60
2022/01/30 11:22:54;;;;;;;;;;;12.60;48.40;;;;;;4997804;28;20018;-59
2022/01/30 11:25:21;;;;;;;;;;;12.60;48.70;;;;;;4997781;28;19996;-58
2022/01/30 11:27:48;;;;;;;;;;;12.80;48.80;;;;;;4995517;28;20338;-60
2022/01/30 11:30:15;;;;;;;;;;;12.90;48.40;;;;;;4996458;28;19992;-61
2022/01/30 11:32:41;;;;;;;;;;;12.90;47.90;;;;;;4996378;28;19993;-62
2022/01/30 11:35:06;;;;;;;;;;;12.70;47.40;;;;;;4996218;28;20369;-59
2022/01/30 11:37:33;;;;;;;;;;;12.60;48.60;;;;;;4996243;28;19910;-58
2022/01/30 11:40:00;;;;;;;;;;;12.70;48.40;;;;;;4995922;28;20465;-58
2022/01/30 11:42:47;;;;;;;;;;;12.90;47.80;;;;;;4996426;28;19941;-62
2022/01/30 11:45:13;;;;;;;;;;;13.00;47.30;;;;;;4996004;28;20365;-64
2022/01/30 11:48:04;;;;;;;;;;;13.00;46.90;;;;;;4996127;28;19916;-68
2022/01/30 11:50:30;;;;;;;;;;;12.90;46.90;;;;;;4995782;28;19921;-70
2022/01/30 11:52:56;;;;;;;;;;;13.00;47.20;;;;;;4993839;28;19913;-69
2022/01/30 11:55:37;;;;;;;;;;;13.10;46.80;;;;;;4976714;28;19917;-64
2022/01/30 11:58:03;;;;;;;;;;;13.20;46.40;;;;;;4976743;28;19911;-65
2022/01/30 12:00:40;;;;;;;;;;;13.40;45.80;;;;;;4976301;28;19910;-67
2022/01/30 12:03:21;;;;;;;;;;;13.40;45.20;;;;;;4976937;28;20326;-66
2022/01/30 12:05:46;;;;;;;;;;;13.30;45.20;;;;;;4976674;28;19964;-65
2022/01/30 12:08:38;;;;;;;;;;;13.30;44.90;;;;;;4976666;28;19922;-68
2022/01/30 12:11:04;;;;;;;;;;;13.30;45.10;;;;;;4953724;28;19920;-70
2022/01/30 12:13:42;;;;;;;;;;;13.30;45.60;;;;;;4976416;28;20001;-67
2022/01/30 12:16:27;;;;;;;;;;;13.10;45.50;;;;;;4976641;28;19922;-72
2022/01/30 12:18:53;;;;;;;;;;;13.00;46.10;;;;;;4975779;28;19946;-65
2022/01/30 12:21:19;;;;;;;;;;;12.90;46.50;;;;;;4976259;28;19917;-71
2022/01/30 12:23:44;;;;;;;;;;;13.00;47.30;;;;;;4976406;28;19910;-60
2022/01/30 12:26:14;;;;;;;;;;;13.00;47.70;;;;;;4976452;28;19914;-63
2022/01/30 12:28:43;;;;;;;;;;;13.10;47.90;;;;;;4976221;28;19918;-73
2022/01/30 12:31:24;;;;;;;;;;;13.20;47.50;;;;;;4976043;28;19921;-64
2022/01/30 12:34:08;;;;;;;;;;;13.20;47.70;;;;;;4975481;28;19914;-63
2022/01/30 12:36:41;;;;;;;;;;;13.10;47.70;;;;;;4975752;28;19910;-66
2022/01/30 12:39:18;;;;;;;;;;;13.20;48.10;;;;;;4975223;28;20309;-68
2022/01/30 12:41:44;;;;;;;;;;;13.20;48.60;;;;;;4975741;28;19965;-60
2022/01/30 12:44:13;;;;;;;;;;;13.20;48.80;;;;;;4975368;28;19914;-60
2022/01/30 12:46:39;;;;;;;;;;;13.20;48.30;;;;;;4975921;28;19918;-66
2022/01/30 12:49:06;;;;;;;;;;;13.20;48.40;;;;;;4975299;28;20310;-64
2022/01/30 12:51:34;;;;;;;;;;;13.30;48.20;;;;;;4956917;28;19984;-64
2022/01/30 12:54:00;;;;;;;;;;;13.30;47.90;;;;;;4974351;28;20294;-68
2022/01/30 12:56:26;;;;;;;;;;;13.20;48.30;;;;;;4984131;28;19910;-63
2022/01/30 12:58:54;;;;;;;;;;;13.20;48.00;;;;;;4993364;28;19914;-63
2022/01/30 13:01:23;;;;;;;;;;;13.30;47.40;;;;;;4990831;28;19910;-69
2022/01/30 13:03:59;;;;;;;;;;;13.20;46.90;;;;;;4994127;28;19909;-61
2022/01/30 13:06:32;;;;;;;;;;;13.30;46.80;;;;;;4994374;28;19910;-60
2022/01/30 13:08:58;;;;;;;;;;;13.30;46.70;;;;;;4994354;28;19944;-63
2022/01/30 13:11:24;;;;;;;;;;;13.20;48.20;;;;;;4994113;28;19914;-59
2022/01/30 13:13:55;;;;;;;;;;;12.60;51.30;;;;;;4994282;28;19918;-60
2022/01/30 13:16:21;;;;;;;;;;;12.60;52.10;;;;;;4994423;28;19949;-61
2022/01/30 13:18:47;;;;;;;;;;;12.50;52.60;;;;;;4994311;28;20362;-67
2022/01/30 13:21:13;;;;;;;;;;;12.20;53.70;;;;;;4994768;28;19917;-65
2022/01/30 13:23:44;;;;;;;;;;;12.10;54.90;;;;;;4998552;28;19909;-70
2022/01/30 13:26:10;;;;;;;;;;;12.10;55.10;;;;;;5008612;28;19921;-68
2022/01/30 13:28:36;;;;;;;;;;;11.80;55.30;;;;;;5009513;28;19925;-66
2022/01/30 13:31:11;;;;;;;;;;;11.60;56.40;;;;;;5008720;28;19910;-64
2022/01/30 13:33:37;;;;;;;;;;;11.50;57.10;;;;;;5000688;28;20000;-64
2022/01/30 13:36:02;;;;;;;;;;;11.50;56.40;;;;;;4994206;28;19945;-64
2022/01/30 13:38:28;;;;;;;;;;;11.80;56.50;;;;;;4993943;28;19917;-69
2022/01/30 13:40:59;;;;;;;;;;;11.60;56.60;;;;;;4993907;28;19917;-73
2022/01/30 13:43:28;;;;;;;;;;;11.80;56.80;;;;;;4993946;28;20313;-64
2022/01/30 13:48:22;;;;;;;;;;;12.10;56.80;;;;;;4993681;28;20012;-62
2022/01/30 13:50:50;;;;;;;;;;;12.00;56.70;;;;;;4993062;28;20370;-68
2022/01/30 13:53:24;;;;;;;;;;;12.10;56.90;;;;;;4993433;28;20381;-73
2022/01/30 13:55:57;;;;;;;;;;;11.90;58.20;;;;;;4993813;28;19910;-62
2022/01/30 13:58:26;;;;;;;;;;;11.90;58.20;;;;;;4993238;28;19914;-67
2022/01/30 14:00:51;;;;;;;;;;;11.90;58.90;;;;;;4993704;28;19989;-64
2022/01/30 14:03:21;;;;;;;;;;;11.70;59.50;;;;;;4993645;28;20378;-64
2022/01/30 14:05:46;;;;;;;;;;;11.70;59.60;;;;;;4993099;28;20460;-63
2022/01/30 14:08:13;;;;;;;;;;;11.80;59.50;;;;;;4993670;28;20012;-63
2022/01/30 14:10:39;;;;;;;;;;;11.80;59.70;;;;;;4993142;28;19910;-63
2022/01/30 14:13:11;;;;;;;;;;;11.90;59.80;;;;;;4993612;28;19918;-71
2022/01/30 14:15:37;;;;;;;;;;;11.50;61.40;;;;;;4959982;28;20381;-66
2022/01/30 14:18:17;;;;;;;;;;;11.30;62.30;;;;;;4993350;28;19917;-70
2022/01/30 14:20:47;;;;;;;;;;;11.30;62.90;;;;;;4993497;28;20289;-64
2022/01/30 14:23:14;;;;;;;;;;;11.40;62.90;;;;;;4993208;28;19910;-62
2022/01/30 14:25:41;;;;;;;;;;;11.10;63.30;;;;;;4993402;28;19921;-64
2022/01/30 14:28:24;;;;;;;;;;;11.00;64.30;;;;;;4991899;28;19993;-63
2022/01/30 14:30:50;;;;;;;;;;;11.20;64.00;;;;;;4989460;28;19918;-70
2022/01/30 14:33:15;;;;;;;;;;;11.30;63.40;;;;;;4991995;28;19921;-65
2022/01/30 14:35:41;;;;;;;;;;;11.30;63.10;;;;;;4989357;28;20417;-63
2022/01/30 14:38:08;;;;;;;;;;;11.20;63.50;;;;;;4990695;28;19910;-63
2022/01/30 14:40:37;;;;;;;;;;;11.20;64.10;;;;;;4992214;28;19917;-62
2022/01/30 14:43:09;;;;;;;;;;;11.20;63.30;;;;;;4989271;28;19914;-62
2022/01/30 14:45:35;;;;;;;;;;;11.20;63.40;;;;;;4989509;28;19910;-60
2022/01/30 14:48:01;;;;;;;;;;;11.10;63.70;;;;;;4988214;28;19928;-64
2022/01/30 14:50:27;;;;;;;;;;;11.00;64.00;;;;;;4991810;28;19910;-61
2022/01/30 14:52:53;;;;;;;;;;;11.00;64.20;;;;;;4992002;28;19917;-62
2022/01/30 14:55:19;;;;;;;;;;;10.90;64.30;;;;;;4989733;28;19940;-61
2022/01/30 14:57:46;;;;;;;;;;;10.80;64.70;;;;;;4991576;28;19913;-62
2022/01/30 15:00:16;;;;;;;;;;;10.70;65.00;;;;;;4990967;28;19920;-62
2022/01/30 15:02:42;;;;;;;;;;;10.60;65.20;;;;;;4991816;28;20005;-65
2022/01/30 15:05:08;;;;;;;;;;;10.60;65.70;;;;;;4992639;28;20009;-62
2022/01/30 15:07:34;;;;;;;;;;;10.50;65.80;;;;;;4991689;28;20004;-61
2022/01/30 15:10:00;;;;;;;;;;;10.40;66.20;;;;;;4992745;28;20009;-61
2022/01/30 15:12:26;;;;;;;;;;;10.30;66.50;;;;;;4992263;28;19918;-61
2022/01/30 15:14:53;;;;;;;;;;;10.20;67.10;;;;;;4992162;28;19937;-62
2022/01/30 15:17:22;;;;;;;;;;;10.20;67.30;;;;;;4993228;28;19945;-61
2022/01/30 15:19:49;;;;;;;;;;;10.10;67.40;;;;;;4992652;28;19910;-68
2022/01/30 15:22:14;;;;;;;;;;;10.00;67.70;;;;;;4991884;28;19914;-61
2022/01/30 15:24:40;;;;;;;;;;;10.00;68.40;;;;;;4991116;28;20444;-61
2022/01/30 15:27:06;;;;;;;;;;;10.00;68.30;;;;;;4983483;28;19940;-61
2022/01/30 15:29:32;;;;;;;;;;;9.90;68.50;;;;;;4975700;28;20386;-61